createdAt,value
2023-02-07T00:00:25.226Z,1035.04
2023-02-07T00:01:25.214Z,1035.06
2023-02-07T00:02:25.296Z,1035.07
2023-02-07T00:03:25.219Z,1035.08
2023-02-07T00:04:25.153Z,1035.08
2023-02-07T00:05:25.140Z,1035.07
2023-02-07T00:06:25.150Z,1035.08
2023-02-07T00:07:25.133Z,1035.09
2023-02-07T00:08:25.121Z,1035.11
2023-02-07T00:09:25.916Z,1035.14
2023-02-07T00:10:25.104Z,1035.15
2023-02-07T00:11:25.127Z,1035.15
2023-02-07T00:12:25.097Z,1035.12
2023-02-07T00:13:25.076Z,1035.09
2023-02-07T00:14:25.081Z,1035.08
2023-02-07T00:15:25.041Z,1035.07
2023-02-07T00:16:25.091Z,1035.03
2023-02-07T00:17:25.070Z,1035.04
2023-02-07T00:18:25.048Z,1035.05
2023-02-07T00:19:25.034Z,1035.06
2023-02-07T00:20:25.014Z,1035.07
2023-02-07T00:21:25.001Z,1035.05
2023-02-07T00:22:24.987Z,1035.06
2023-02-07T00:23:25.511Z,1035.06
2023-02-07T00:24:24.990Z,1035.06
2023-02-07T00:25:24.982Z,1035.05
2023-02-07T00:26:25.021Z,1035.04
2023-02-07T00:27:24.938Z,1035.04
2023-02-07T00:28:25.141Z,1035.06
2023-02-07T00:29:24.930Z,1035.10
2023-02-07T00:30:25.041Z,1035.14
2023-02-07T00:31:25.030Z,1035.17
2023-02-07T00:32:24.892Z,1035.16
2023-02-07T00:33:24.880Z,1035.16
2023-02-07T00:34:24.876Z,1035.14
2023-02-07T00:35:24.888Z,1035.14
2023-02-07T00:36:24.875Z,1035.12
2023-02-07T00:37:24.837Z,1035.10
2023-02-07T00:38:24.844Z,1035.06
2023-02-07T00:39:24.839Z,1035.01
2023-02-07T00:40:24.839Z,1035.01
2023-02-07T00:41:24.901Z,1035.05
2023-02-07T00:42:24.837Z,1035.11
2023-02-07T00:43:29.959Z,1035.15
2023-02-07T00:44:24.817Z,1035.12
2023-02-07T00:45:24.817Z,1035.07
2023-02-07T00:46:24.823Z,1035.03
2023-02-07T00:47:24.810Z,1035.02
2023-02-07T00:48:24.748Z,1035.04
2023-02-07T00:49:24.737Z,1035.07
2023-02-07T00:50:24.776Z,1035.08
2023-02-07T00:51:24.713Z,1035.08
2023-02-07T00:52:24.689Z,1035.03
2023-02-07T00:53:25.580Z,1034.96
2023-02-07T00:54:24.671Z,1034.90
2023-02-07T00:55:24.655Z,1034.92
2023-02-07T00:56:24.712Z,1034.99
2023-02-07T00:57:24.676Z,1035.09
2023-02-07T00:58:24.703Z,1035.16
2023-02-07T00:59:24.644Z,1035.20
2023-02-07T01:00:24.984Z,1035.17
2023-02-07T01:01:24.867Z,1035.12
2023-02-07T01:02:24.656Z,1035.07
2023-02-07T01:03:24.608Z,1035.05
2023-02-07T01:04:24.614Z,1035.04
2023-02-07T01:05:24.578Z,1035.04
2023-02-07T01:06:24.629Z,1035.05
2023-02-07T01:07:24.556Z,1035.05
2023-02-07T01:08:24.573Z,1035.04
2023-02-07T01:09:24.514Z,1035.05
2023-02-07T01:10:24.563Z,1035.05
2023-02-07T01:11:24.524Z,1035.05
2023-02-07T01:12:24.509Z,1035.03
2023-02-07T01:13:24.487Z,1035.04
2023-02-07T01:14:24.492Z,1035.04
2023-02-07T01:15:24.465Z,1035.03
2023-02-07T01:16:24.485Z,1035.03
2023-02-07T01:17:24.490Z,1035.04
2023-02-07T01:18:24.457Z,1035.01
2023-02-07T01:19:24.502Z,1034.98
2023-02-07T01:20:24.454Z,1034.98
2023-02-07T01:21:24.465Z,1034.99
2023-02-07T01:22:24.425Z,1035.02
2023-02-07T01:23:24.404Z,1035.04
2023-02-07T01:24:24.510Z,1035.06
2023-02-07T01:25:24.445Z,1035.09
2023-02-07T01:26:24.402Z,1035.13
2023-02-07T01:27:24.371Z,1035.17
2023-02-07T01:28:24.371Z,1035.19
2023-02-07T01:29:24.370Z,1035.15
2023-02-07T01:30:24.326Z,1035.11
2023-02-07T01:31:24.517Z,1035.08
2023-02-07T01:32:24.309Z,1035.08
2023-02-07T01:33:24.316Z,1035.09
2023-02-07T01:34:24.323Z,1035.10
2023-02-07T01:35:24.312Z,1035.09
2023-02-07T01:36:24.283Z,1035.11
2023-02-07T01:37:24.275Z,1035.12
2023-02-07T01:38:24.264Z,1035.12
2023-02-07T01:39:24.317Z,1035.09
2023-02-07T01:40:24.233Z,1035.08
2023-02-07T01:41:24.299Z,1035.06
2023-02-07T01:42:24.205Z,1035.05
2023-02-07T01:43:24.231Z,1035.06
2023-02-07T01:44:24.205Z,1035.08
2023-02-07T01:45:24.192Z,1035.11
2023-02-07T01:46:24.168Z,1035.14
2023-02-07T01:47:24.181Z,1035.17
2023-02-07T01:48:24.151Z,1035.19
2023-02-07T01:49:24.162Z,1035.19
2023-02-07T01:50:24.136Z,1035.19
2023-02-07T01:51:24.138Z,1035.20
2023-02-07T01:52:24.106Z,1035.21
2023-02-07T01:53:24.161Z,1035.21
2023-02-07T01:54:24.098Z,1035.20
2023-02-07T01:55:24.090Z,1035.19
2023-02-07T01:56:31.597Z,1035.20
2023-02-07T01:57:24.245Z,1035.20
2023-02-07T01:58:24.046Z,1035.18
2023-02-07T01:59:24.053Z,1035.16
2023-02-07T02:00:24.038Z,1035.17
2023-02-07T02:01:24.071Z,1035.17
2023-02-07T02:02:24.078Z,1035.19
2023-02-07T02:03:24.009Z,1035.24
2023-02-07T02:04:24.014Z,1035.27
2023-02-07T02:05:24.000Z,1035.28
2023-02-07T02:06:24.023Z,1035.24
2023-02-07T02:07:23.966Z,1035.18
2023-02-07T02:08:23.953Z,1035.13
2023-02-07T02:09:23.994Z,1035.11
2023-02-07T02:10:23.945Z,1035.10
2023-02-07T02:11:23.933Z,1035.09
2023-02-07T02:12:23.933Z,1035.08
2023-02-07T02:13:23.914Z,1035.09
2023-02-07T02:14:23.891Z,1035.11
2023-02-07T02:15:23.878Z,1035.12
2023-02-07T02:16:23.887Z,1035.12
2023-02-07T02:17:23.913Z,1035.12
2023-02-07T02:18:23.874Z,1035.13
2023-02-07T02:19:23.871Z,1035.13
2023-02-07T02:20:23.925Z,1035.12
2023-02-07T02:21:23.883Z,1035.10
2023-02-07T02:22:23.847Z,1035.08
2023-02-07T02:23:23.823Z,1035.07
2023-02-07T02:24:23.784Z,1035.05
2023-02-07T02:25:23.819Z,1035.05
2023-02-07T02:26:23.777Z,1035.05
2023-02-07T02:27:23.782Z,1035.05
2023-02-07T02:28:23.783Z,1035.05
2023-02-07T02:29:23.787Z,1035.06
2023-02-07T02:30:23.822Z,1035.09
2023-02-07T02:31:23.789Z,1035.09
2023-02-07T02:32:23.708Z,1035.07
2023-02-07T02:33:23.720Z,1035.05
2023-02-07T02:34:23.701Z,1035.06
2023-02-07T02:35:23.690Z,1035.08
2023-02-07T02:36:23.708Z,1035.10
2023-02-07T02:37:23.679Z,1035.10
2023-02-07T02:38:23.660Z,1035.08
2023-02-07T02:39:23.672Z,1035.07
2023-02-07T02:40:23.631Z,1035.06
2023-02-07T02:41:23.644Z,1035.05
2023-02-07T02:42:23.640Z,1035.04
2023-02-07T02:43:23.698Z,1035.03
2023-02-07T02:44:23.646Z,1035.02
2023-02-07T02:45:23.624Z,1034.98
2023-02-07T02:46:23.669Z,1034.96
2023-02-07T02:47:23.615Z,1034.96
2023-02-07T02:48:23.583Z,1034.96
2023-02-07T02:49:23.587Z,1034.95
2023-02-07T02:50:23.547Z,1034.93
2023-02-07T02:51:23.565Z,1034.91
2023-02-07T02:52:23.552Z,1034.91
2023-02-07T02:53:23.540Z,1034.92
2023-02-07T02:54:24.532Z,1034.92
2023-02-07T02:55:23.536Z,1034.92
2023-02-07T02:56:23.491Z,1034.90
2023-02-07T02:57:23.494Z,1034.89
2023-02-07T02:58:23.481Z,1034.89
2023-02-07T02:59:23.467Z,1034.90
2023-02-07T03:00:23.452Z,1034.92
2023-02-07T03:01:23.505Z,1034.91
2023-02-07T03:02:23.462Z,1034.89
2023-02-07T03:03:23.460Z,1034.87
2023-02-07T03:04:23.421Z,1034.86
2023-02-07T03:05:23.417Z,1034.87
2023-02-07T03:06:23.429Z,1034.90
2023-02-07T03:07:23.409Z,1034.92
2023-02-07T03:08:23.409Z,1034.93
2023-02-07T03:09:23.456Z,1034.93
2023-02-07T03:10:23.376Z,1034.93
2023-02-07T03:11:23.349Z,1034.93
2023-02-07T03:12:23.373Z,1034.93
2023-02-07T03:13:23.382Z,1034.93
2023-02-07T03:14:23.359Z,1034.95
2023-02-07T03:15:23.360Z,1034.96
2023-02-07T03:16:23.331Z,1034.96
2023-02-07T03:17:23.319Z,1034.94
2023-02-07T03:18:23.325Z,1034.94
2023-02-07T03:19:23.312Z,1034.93
2023-02-07T03:20:23.260Z,1034.92
2023-02-07T03:21:23.276Z,1034.92
2023-02-07T03:22:23.359Z,1034.94
2023-02-07T03:23:23.271Z,1034.95
2023-02-07T03:24:23.230Z,1034.98
2023-02-07T03:25:23.252Z,1035.02
2023-02-07T03:26:23.207Z,1035.04
2023-02-07T03:27:23.203Z,1035.03
2023-02-07T03:28:23.201Z,1035.02
2023-02-07T03:29:23.194Z,1035.03
2023-02-07T03:30:23.216Z,1035.02
2023-02-07T03:31:23.189Z,1034.99
2023-02-07T03:32:23.206Z,1034.96
2023-02-07T03:33:23.185Z,1034.94
2023-02-07T03:34:23.157Z,1034.94
2023-02-07T03:35:23.125Z,1034.96
2023-02-07T03:36:23.110Z,1034.99
2023-02-07T03:37:23.114Z,1035.02
2023-02-07T03:38:23.081Z,1035.04
2023-02-07T03:39:23.128Z,1035.03
2023-02-07T03:40:23.093Z,1035.01
2023-02-07T03:41:23.078Z,1035.02
2023-02-07T03:42:23.057Z,1035.00
2023-02-07T03:43:23.056Z,1034.98
2023-02-07T03:44:24.013Z,1034.96
2023-02-07T03:45:23.102Z,1034.95
2023-02-07T03:46:23.091Z,1034.97
2023-02-07T03:47:22.993Z,1034.99
2023-02-07T03:48:23.006Z,1034.98
2023-02-07T03:49:23.051Z,1034.97
2023-02-07T03:50:23.027Z,1034.96
2023-02-07T03:51:22.966Z,1034.92
2023-02-07T03:52:22.945Z,1034.89
2023-02-07T03:53:23.006Z,1034.87
2023-02-07T03:54:22.944Z,1034.87
2023-02-07T03:55:22.994Z,1034.88
2023-02-07T03:56:22.935Z,1034.88
2023-02-07T03:57:23.534Z,1034.88
2023-02-07T03:58:23.525Z,1034.90
2023-02-07T03:59:22.904Z,1034.91
2023-02-07T04:00:22.877Z,1034.92
2023-02-07T04:01:22.876Z,1034.91
2023-02-07T04:02:22.886Z,1034.92
2023-02-07T04:03:22.939Z,1034.92
2023-02-07T04:04:22.848Z,1034.92
2023-02-07T04:05:22.861Z,1034.91
2023-02-07T04:06:22.852Z,1034.91
2023-02-07T04:07:22.821Z,1034.92
2023-02-07T04:08:22.826Z,1034.93
2023-02-07T04:09:22.836Z,1034.95
2023-02-07T04:10:22.772Z,1034.95
2023-02-07T04:11:22.858Z,1034.94
2023-02-07T04:12:22.834Z,1034.92
2023-02-07T04:13:22.788Z,1034.90
2023-02-07T04:14:22.756Z,1034.89
2023-02-07T04:15:22.779Z,1034.90
2023-02-07T04:16:22.821Z,1034.90
2023-02-07T04:17:23.498Z,1034.89
2023-02-07T04:18:22.706Z,1034.88
2023-02-07T04:19:22.697Z,1034.88
2023-02-07T04:20:22.807Z,1034.87
2023-02-07T04:21:22.743Z,1034.87
2023-02-07T04:22:22.681Z,1034.87
2023-02-07T04:23:23.573Z,1034.85
2023-02-07T04:24:23.541Z,1034.81
2023-02-07T04:25:22.706Z,1034.77
2023-02-07T04:26:22.692Z,1034.76
2023-02-07T04:27:22.646Z,1034.77
2023-02-07T04:28:22.678Z,1034.78
2023-02-07T04:29:22.650Z,1034.78
2023-02-07T04:30:22.668Z,1034.78
2023-02-07T04:31:22.894Z,1034.78
2023-02-07T04:32:22.588Z,1034.78
2023-02-07T04:33:22.592Z,1034.75
2023-02-07T04:34:22.591Z,1034.72
2023-02-07T04:35:22.802Z,1034.69
2023-02-07T04:36:22.558Z,1034.67
2023-02-07T04:37:23.739Z,1034.66
2023-02-07T04:38:22.562Z,1034.65
2023-02-07T04:39:24.551Z,1034.64
2023-02-07T04:40:22.500Z,1034.65
2023-02-07T04:41:22.555Z,1034.66
2023-02-07T04:42:22.705Z,1034.67
2023-02-07T04:43:22.525Z,1034.67
2023-02-07T04:44:22.502Z,1034.66
2023-02-07T04:45:22.494Z,1034.66
2023-02-07T04:46:22.468Z,1034.66
2023-02-07T04:47:22.797Z,1034.67
2023-02-07T04:48:22.437Z,1034.68
2023-02-07T04:49:22.435Z,1034.70
2023-02-07T04:50:22.410Z,1034.71
2023-02-07T04:51:22.463Z,1034.70
2023-02-07T04:52:23.008Z,1034.70
2023-02-07T04:53:22.476Z,1034.70
2023-02-07T04:54:22.366Z,1034.70
2023-02-07T04:55:22.352Z,1034.70
2023-02-07T04:56:22.423Z,1034.70
2023-02-07T04:57:22.783Z,1034.70
2023-02-07T04:58:22.337Z,1034.72
2023-02-07T04:59:22.346Z,1034.73
2023-02-07T05:00:22.271Z,1034.75
2023-02-07T05:01:22.408Z,1034.76
2023-02-07T05:02:22.339Z,1034.77
2023-02-07T05:03:22.284Z,1034.79
2023-02-07T05:04:22.372Z,1034.80
2023-02-07T05:05:22.310Z,1034.81
2023-02-07T05:06:22.307Z,1034.81
2023-02-07T05:07:22.239Z,1034.82
2023-02-07T05:08:22.882Z,1034.83
2023-02-07T05:09:22.248Z,1034.84
2023-02-07T05:10:22.216Z,1034.84
2023-02-07T05:11:22.244Z,1034.84
2023-02-07T05:12:22.208Z,1034.84
2023-02-07T05:13:22.233Z,1034.84
2023-02-07T05:14:22.241Z,1034.84
2023-02-07T05:15:22.192Z,1034.85
2023-02-07T05:16:22.224Z,1034.85
2023-02-07T05:17:22.150Z,1034.85
2023-02-07T05:18:22.205Z,1034.85
2023-02-07T05:19:22.218Z,1034.87
2023-02-07T05:20:22.183Z,1034.90
2023-02-07T05:21:22.117Z,1034.93
2023-02-07T05:22:22.125Z,1034.95
2023-02-07T05:23:22.146Z,1034.94
2023-02-07T05:24:22.607Z,1034.90
2023-02-07T05:25:22.050Z,1034.87
2023-02-07T05:26:22.355Z,1034.86
2023-02-07T05:27:22.048Z,1034.87
2023-02-07T05:28:22.092Z,1034.89
2023-02-07T05:29:22.126Z,1034.90
2023-02-07T05:30:23.084Z,1034.90
2023-02-07T05:31:22.313Z,1034.90
2023-02-07T05:32:22.030Z,1034.91
2023-02-07T05:33:29.633Z,1034.91
2023-02-07T05:34:22.002Z,1034.93
2023-02-07T05:35:22.035Z,1034.95
2023-02-07T05:36:22.270Z,1034.96
2023-02-07T05:37:22.061Z,1034.98
2023-02-07T05:38:21.964Z,1034.98
2023-02-07T05:39:21.942Z,1034.99
2023-02-07T05:40:21.925Z,1034.99
2023-02-07T05:41:21.946Z,1034.99
2023-02-07T05:42:21.884Z,1034.99
2023-02-07T05:43:21.880Z,1034.98
2023-02-07T05:44:21.855Z,1034.99
2023-02-07T05:45:21.879Z,1034.99
2023-02-07T05:46:21.866Z,1035.00
2023-02-07T05:47:21.863Z,1035.00
2023-02-07T05:48:21.846Z,1035.02
2023-02-07T05:49:21.844Z,1035.03
2023-02-07T05:50:21.797Z,1035.04
2023-02-07T05:51:21.793Z,1035.05
2023-02-07T05:52:21.810Z,1035.06
2023-02-07T05:53:21.798Z,1035.06
2023-02-07T05:54:21.781Z,1035.06
2023-02-07T05:55:21.787Z,1035.07
2023-02-07T05:56:22.018Z,1035.08
2023-02-07T05:57:22.125Z,1035.09
2023-02-07T05:58:21.808Z,1035.09
2023-02-07T05:59:21.796Z,1035.09
2023-02-07T06:00:21.985Z,1035.10
2023-02-07T06:01:22.144Z,1035.10
2023-02-07T06:02:21.747Z,1035.09
2023-02-07T06:03:21.854Z,1035.08
2023-02-07T06:04:22.035Z,1035.07
2023-02-07T06:05:21.807Z,1035.07
2023-02-07T06:06:21.789Z,1035.08
2023-02-07T06:07:22.108Z,1035.08
2023-02-07T06:08:21.997Z,1035.07
2023-02-07T06:09:21.746Z,1035.07
2023-02-07T06:10:21.660Z,1035.07
2023-02-07T06:11:21.632Z,1035.08
2023-02-07T06:12:21.646Z,1035.09
2023-02-07T06:13:21.710Z,1035.11
2023-02-07T06:14:21.992Z,1035.14
2023-02-07T06:15:21.756Z,1035.15
2023-02-07T06:16:21.626Z,1035.17
2023-02-07T06:17:21.641Z,1035.18
2023-02-07T06:18:21.716Z,1035.20
2023-02-07T06:19:21.730Z,1035.21
2023-02-07T06:20:21.588Z,1035.20
2023-02-07T06:21:21.598Z,1035.19
2023-02-07T06:22:21.469Z,1035.21
2023-02-07T06:23:21.629Z,1035.23
2023-02-07T06:24:21.530Z,1035.25
2023-02-07T06:25:21.654Z,1035.26
2023-02-07T06:26:21.539Z,1035.26
2023-02-07T06:27:21.461Z,1035.28
2023-02-07T06:28:21.430Z,1035.29
2023-02-07T06:29:21.390Z,1035.31
2023-02-07T06:30:21.418Z,1035.33
2023-02-07T06:31:21.495Z,1035.32
2023-02-07T06:32:21.331Z,1035.31
2023-02-07T06:33:21.321Z,1035.29
2023-02-07T06:34:21.317Z,1035.28
2023-02-07T06:35:21.315Z,1035.27
2023-02-07T06:36:21.333Z,1035.27
2023-02-07T06:37:21.298Z,1035.26
2023-02-07T06:38:21.290Z,1035.26
2023-02-07T06:39:21.274Z,1035.28
2023-02-07T06:40:21.261Z,1035.30
2023-02-07T06:41:21.244Z,1035.32
2023-02-07T06:42:21.347Z,1035.32
2023-02-07T06:43:21.237Z,1035.32
2023-02-07T06:44:21.221Z,1035.31
2023-02-07T06:45:21.246Z,1035.32
2023-02-07T06:46:21.252Z,1035.32
2023-02-07T06:47:21.241Z,1035.34
2023-02-07T06:48:21.180Z,1035.36
2023-02-07T06:49:21.261Z,1035.39
2023-02-07T06:50:21.169Z,1035.42
2023-02-07T06:51:21.159Z,1035.44
2023-02-07T06:52:21.168Z,1035.46
2023-02-07T06:53:21.139Z,1035.47
2023-02-07T06:54:21.287Z,1035.46
2023-02-07T06:55:21.101Z,1035.45
2023-02-07T06:56:21.182Z,1035.43
2023-02-07T06:57:21.104Z,1035.41
2023-02-07T06:58:21.248Z,1035.39
2023-02-07T06:59:21.079Z,1035.37
2023-02-07T07:00:21.071Z,1035.36
2023-02-07T07:01:21.088Z,1035.36
2023-02-07T07:02:21.057Z,1035.37
2023-02-07T07:03:21.131Z,1035.38
2023-02-07T07:04:21.575Z,1035.38
2023-02-07T07:05:21.024Z,1035.36
2023-02-07T07:06:21.320Z,1035.34
2023-02-07T07:07:21.134Z,1035.33
2023-02-07T07:08:21.037Z,1035.34
2023-02-07T07:09:20.977Z,1035.37
2023-02-07T07:10:21.002Z,1035.39
2023-02-07T07:11:20.955Z,1035.40
2023-02-07T07:12:20.967Z,1035.39
2023-02-07T07:13:20.946Z,1035.40
2023-02-07T07:14:20.999Z,1035.42
2023-02-07T07:15:20.933Z,1035.44
2023-02-07T07:16:22.024Z,1035.44
2023-02-07T07:17:20.912Z,1035.44
2023-02-07T07:18:20.907Z,1035.45
2023-02-07T07:19:20.946Z,1035.45
2023-02-07T07:20:20.900Z,1035.46
2023-02-07T07:21:20.918Z,1035.44
2023-02-07T07:22:21.196Z,1035.43
2023-02-07T07:23:20.846Z,1035.42
2023-02-07T07:24:20.864Z,1035.43
2023-02-07T07:25:20.915Z,1035.46
2023-02-07T07:26:20.833Z,1035.49
2023-02-07T07:27:20.830Z,1035.51
2023-02-07T07:28:20.914Z,1035.51
2023-02-07T07:29:20.924Z,1035.48
2023-02-07T07:30:20.794Z,1035.45
2023-02-07T07:31:20.936Z,1035.45
2023-02-07T07:32:33.294Z,1035.45
2023-02-07T07:33:20.783Z,1035.46
2023-02-07T07:34:20.754Z,1035.46
2023-02-07T07:35:20.700Z,1035.44
2023-02-07T07:36:20.865Z,1035.43
2023-02-07T07:37:20.760Z,1035.43
2023-02-07T07:38:20.708Z,1035.45
2023-02-07T07:39:20.694Z,1035.46
2023-02-07T07:40:20.672Z,1035.48
2023-02-07T07:41:20.670Z,1035.49
2023-02-07T07:42:20.705Z,1035.50
2023-02-07T07:43:20.682Z,1035.51
2023-02-07T07:44:20.645Z,1035.51
2023-02-07T07:45:20.624Z,1035.51
2023-02-07T07:46:20.684Z,1035.49
2023-02-07T07:47:20.612Z,1035.48
2023-02-07T07:48:20.658Z,1035.48
2023-02-07T07:49:20.605Z,1035.48
2023-02-07T07:50:20.611Z,1035.48
2023-02-07T07:51:20.739Z,1035.48
2023-02-07T07:52:20.583Z,1035.50
2023-02-07T07:53:20.578Z,1035.53
2023-02-07T07:54:20.565Z,1035.55
2023-02-07T07:55:20.535Z,1035.58
2023-02-07T07:56:20.519Z,1035.60
2023-02-07T07:57:21.327Z,1035.63
2023-02-07T07:58:20.556Z,1035.64
2023-02-07T07:59:24.250Z,1035.66
2023-02-07T08:00:20.486Z,1035.67
2023-02-07T08:01:20.538Z,1035.69
2023-02-07T08:02:20.466Z,1035.70
2023-02-07T08:03:20.458Z,1035.70
2023-02-07T08:04:20.462Z,1035.69
2023-02-07T08:05:20.459Z,1035.68
2023-02-07T08:06:20.614Z,1035.68
2023-02-07T08:07:20.591Z,1035.67
2023-02-07T08:08:20.681Z,1035.68
2023-02-07T08:09:20.679Z,1035.68
2023-02-07T08:10:20.484Z,1035.69
2023-02-07T08:11:20.566Z,1035.71
2023-02-07T08:12:20.902Z,1035.74
2023-02-07T08:13:20.432Z,1035.77
2023-02-07T08:14:20.580Z,1035.78
2023-02-07T08:15:20.443Z,1035.80
2023-02-07T08:16:20.709Z,1035.82
2023-02-07T08:17:20.455Z,1035.84
2023-02-07T08:18:21.082Z,1035.83
2023-02-07T08:19:21.291Z,1035.81
2023-02-07T08:20:20.394Z,1035.76
2023-02-07T08:21:20.410Z,1035.73
2023-02-07T08:22:20.911Z,1035.70
2023-02-07T08:23:20.251Z,1035.68
2023-02-07T08:24:20.314Z,1035.66
2023-02-07T08:25:20.317Z,1035.66
2023-02-07T08:26:20.433Z,1035.68
2023-02-07T08:27:20.400Z,1035.70
2023-02-07T08:28:21.014Z,1035.73
2023-02-07T08:29:20.247Z,1035.75
2023-02-07T08:30:20.252Z,1035.77
2023-02-07T08:31:20.412Z,1035.78
2023-02-07T08:32:20.489Z,1035.77
2023-02-07T08:33:20.253Z,1035.76
2023-02-07T08:34:20.503Z,1035.76
2023-02-07T08:35:20.168Z,1035.76
2023-02-07T08:36:20.200Z,1035.76
2023-02-07T08:37:20.382Z,1035.78
2023-02-07T08:38:20.151Z,1035.81
2023-02-07T08:39:20.115Z,1035.83
2023-02-07T08:40:20.149Z,1035.85
2023-02-07T08:41:20.110Z,1035.85
2023-02-07T08:42:20.134Z,1035.84
2023-02-07T08:43:20.071Z,1035.83
2023-02-07T08:44:20.291Z,1035.83
2023-02-07T08:45:20.259Z,1035.84
2023-02-07T08:46:21.652Z,1035.86
2023-02-07T08:47:20.104Z,1035.87
2023-02-07T08:48:22.110Z,1035.88
2023-02-07T08:49:20.085Z,1035.90
2023-02-07T08:50:20.047Z,1035.91
2023-02-07T08:51:20.006Z,1035.92
2023-02-07T08:52:20.007Z,1035.92
2023-02-07T08:53:20.040Z,1035.90
2023-02-07T08:54:19.967Z,1035.89
2023-02-07T08:55:20.000Z,1035.88
2023-02-07T08:56:19.950Z,1035.86
2023-02-07T08:57:19.977Z,1035.86
2023-02-07T08:58:20.016Z,1035.85
2023-02-07T08:59:19.915Z,1035.83
2023-02-07T09:00:19.964Z,1035.81
2023-02-07T09:01:20.039Z,1035.78
2023-02-07T09:02:19.894Z,1035.75
2023-02-07T09:03:19.956Z,1035.72
2023-02-07T09:04:19.882Z,1035.70
2023-02-07T09:05:19.905Z,1035.68
2023-02-07T09:06:19.895Z,1035.69
2023-02-07T09:07:19.855Z,1035.70
2023-02-07T09:08:19.859Z,1035.71
2023-02-07T09:09:20.099Z,1035.72
2023-02-07T09:10:19.812Z,1035.71
2023-02-07T09:11:19.949Z,1035.71
2023-02-07T09:12:20.101Z,1035.70
2023-02-07T09:13:20.017Z,1035.71
2023-02-07T09:14:19.837Z,1035.71
2023-02-07T09:15:20.118Z,1035.70
2023-02-07T09:16:19.858Z,1035.70
2023-02-07T09:17:19.788Z,1035.71
2023-02-07T09:18:20.048Z,1035.72
2023-02-07T09:19:19.721Z,1035.73
2023-02-07T09:20:20.006Z,1035.74
2023-02-07T09:21:19.741Z,1035.76
2023-02-07T09:22:19.969Z,1035.76
2023-02-07T09:23:19.740Z,1035.74
2023-02-07T09:24:19.705Z,1035.73
2023-02-07T09:25:20.046Z,1035.73
2023-02-07T09:26:19.676Z,1035.74
2023-02-07T09:27:19.652Z,1035.75
2023-02-07T09:28:19.789Z,1035.76
2023-02-07T09:29:19.683Z,1035.77
2023-02-07T09:30:19.663Z,1035.78
2023-02-07T09:31:19.763Z,1035.78
2023-02-07T09:32:19.716Z,1035.78
2023-02-07T09:33:19.700Z,1035.78
2023-02-07T09:34:19.638Z,1035.77
2023-02-07T09:35:19.625Z,1035.76
2023-02-07T09:36:20.316Z,1035.76
2023-02-07T09:37:20.912Z,1035.75
2023-02-07T09:38:19.592Z,1035.74
2023-02-07T09:39:19.681Z,1035.74
2023-02-07T09:40:19.729Z,1035.75
2023-02-07T09:41:19.545Z,1035.76
2023-02-07T09:42:19.599Z,1035.76
2023-02-07T09:43:19.738Z,1035.77
2023-02-07T09:44:19.773Z,1035.78
2023-02-07T09:45:19.713Z,1035.79
2023-02-07T09:46:19.497Z,1035.79
2023-02-07T09:47:20.031Z,1035.79
2023-02-07T09:48:19.541Z,1035.78
2023-02-07T09:49:19.443Z,1035.78
2023-02-07T09:50:19.495Z,1035.78
2023-02-07T09:51:19.448Z,1035.77
2023-02-07T09:52:19.479Z,1035.77
2023-02-07T09:53:19.382Z,1035.76
2023-02-07T09:54:19.384Z,1035.75
2023-02-07T09:55:19.421Z,1035.73
2023-02-07T09:56:19.420Z,1035.73
2023-02-07T09:57:19.419Z,1035.73
2023-02-07T09:58:19.360Z,1035.73
2023-02-07T09:59:19.317Z,1035.75
2023-02-07T10:00:19.398Z,1035.76
2023-02-07T10:01:19.375Z,1035.78
2023-02-07T10:02:19.364Z,1035.79
2023-02-07T10:03:19.332Z,1035.80
2023-02-07T10:04:19.307Z,1035.79
2023-02-07T10:05:19.330Z,1035.78
2023-02-07T10:06:20.328Z,1035.75
2023-02-07T10:07:19.245Z,1035.71
2023-02-07T10:08:19.482Z,1035.69
2023-02-07T10:09:19.526Z,1035.68
2023-02-07T10:10:19.485Z,1035.67
2023-02-07T10:11:19.254Z,1035.68
2023-02-07T10:12:19.763Z,1035.68
2023-02-07T10:13:19.277Z,1035.66
2023-02-07T10:14:19.209Z,1035.65
2023-02-07T10:15:19.255Z,1035.65
2023-02-07T10:16:19.323Z,1035.64
2023-02-07T10:17:30.467Z,1035.63
2023-02-07T10:18:19.210Z,1035.64
2023-02-07T10:19:19.264Z,1035.63
2023-02-07T10:20:19.188Z,1035.62
2023-02-07T10:21:19.110Z,1035.61
2023-02-07T10:22:19.088Z,1035.60
2023-02-07T10:23:19.104Z,1035.60
2023-02-07T10:24:19.086Z,1035.60
2023-02-07T10:25:19.125Z,1035.60
2023-02-07T10:26:19.102Z,1035.57
2023-02-07T10:27:19.051Z,1035.57
2023-02-07T10:28:19.117Z,1035.56
2023-02-07T10:29:19.044Z,1035.56
2023-02-07T10:30:19.077Z,1035.56
2023-02-07T10:31:19.142Z,1035.55
2023-02-07T10:32:19.004Z,1035.55
2023-02-07T10:33:18.999Z,1035.55
2023-02-07T10:34:18.983Z,1035.55
2023-02-07T10:35:18.996Z,1035.56
2023-02-07T10:36:19.001Z,1035.57
2023-02-07T10:37:19.024Z,1035.58
2023-02-07T10:38:18.933Z,1035.58
2023-02-07T10:39:18.951Z,1035.56
2023-02-07T10:40:18.926Z,1035.55
2023-02-07T10:41:18.902Z,1035.54
2023-02-07T10:42:18.925Z,1035.55
2023-02-07T10:43:18.935Z,1035.56
2023-02-07T10:44:18.897Z,1035.59
2023-02-07T10:45:18.873Z,1035.62
2023-02-07T10:46:18.865Z,1035.63
2023-02-07T10:47:18.867Z,1035.64
2023-02-07T10:48:18.918Z,1035.65
2023-02-07T10:49:24.861Z,1035.65
2023-02-07T10:50:29.341Z,1035.64
2023-02-07T10:51:18.868Z,1035.66
2023-02-07T10:52:18.787Z,1035.67
2023-02-07T10:53:18.774Z,1035.68
2023-02-07T10:54:18.789Z,1035.69
2023-02-07T10:55:18.768Z,1035.70
2023-02-07T10:56:18.771Z,1035.70
2023-02-07T10:57:19.062Z,1035.72
2023-02-07T10:58:23.245Z,1035.73
2023-02-07T10:59:18.753Z,1035.73
2023-02-07T11:00:18.775Z,1035.73
2023-02-07T11:01:18.817Z,1035.71
2023-02-07T11:02:18.713Z,1035.72
2023-02-07T11:03:18.693Z,1035.72
2023-02-07T11:04:18.666Z,1035.73
2023-02-07T11:05:18.741Z,1035.73
2023-02-07T11:06:18.682Z,1035.73
2023-02-07T11:07:18.665Z,1035.73
2023-02-07T11:08:18.646Z,1035.74
2023-02-07T11:09:18.618Z,1035.75
2023-02-07T11:10:18.784Z,1035.77
2023-02-07T11:11:18.636Z,1035.77
2023-02-07T11:12:18.602Z,1035.76
2023-02-07T11:13:18.628Z,1035.75
2023-02-07T11:14:18.578Z,1035.74
2023-02-07T11:15:18.570Z,1035.72
2023-02-07T11:16:18.604Z,1035.72
2023-02-07T11:17:18.568Z,1035.71
2023-02-07T11:18:18.547Z,1035.71
2023-02-07T11:19:18.572Z,1035.70
2023-02-07T11:20:18.686Z,1035.68
2023-02-07T11:21:18.578Z,1035.67
2023-02-07T11:22:18.487Z,1035.66
2023-02-07T11:23:18.504Z,1035.64
2023-02-07T11:24:18.468Z,1035.62
2023-02-07T11:25:18.489Z,1035.60
2023-02-07T11:26:18.452Z,1035.58
2023-02-07T11:27:18.455Z,1035.57
2023-02-07T11:28:18.509Z,1035.58
2023-02-07T11:29:18.455Z,1035.59
2023-02-07T11:30:18.473Z,1035.61
2023-02-07T11:31:18.495Z,1035.60
2023-02-07T11:32:18.389Z,1035.60
2023-02-07T11:33:18.426Z,1035.59
2023-02-07T11:34:18.393Z,1035.58
2023-02-07T11:35:18.388Z,1035.54
2023-02-07T11:36:18.353Z,1035.53
2023-02-07T11:37:18.352Z,1035.52
2023-02-07T11:38:18.328Z,1035.50
2023-02-07T11:39:18.353Z,1035.51
2023-02-07T11:40:18.322Z,1035.51
2023-02-07T11:41:18.319Z,1035.50
2023-02-07T11:42:18.306Z,1035.49
2023-02-07T11:43:18.301Z,1035.49
2023-02-07T11:44:18.312Z,1035.49
2023-02-07T11:45:18.282Z,1035.49
2023-02-07T11:46:18.245Z,1035.49
2023-02-07T11:47:18.258Z,1035.48
2023-02-07T11:48:18.209Z,1035.47
2023-02-07T11:49:18.243Z,1035.46
2023-02-07T11:50:18.200Z,1035.44
2023-02-07T11:51:18.253Z,1035.42
2023-02-07T11:52:18.225Z,1035.41
2023-02-07T11:53:18.187Z,1035.39
2023-02-07T11:54:18.167Z,1035.40
2023-02-07T11:55:18.170Z,1035.40
2023-02-07T11:56:18.202Z,1035.39
2023-02-07T11:57:18.160Z,1035.39
2023-02-07T11:58:18.194Z,1035.37
2023-02-07T11:59:19.580Z,1035.33
2023-02-07T12:00:18.120Z,1035.32
2023-02-07T12:01:18.190Z,1035.33
2023-02-07T12:02:18.180Z,1035.32
2023-02-07T12:03:18.088Z,1035.31
2023-02-07T12:04:18.071Z,1035.31
2023-02-07T12:05:18.138Z,1035.31